createdAt,value
2023-09-03T00:01:14.631Z,21.66
2023-09-03T00:03:49.442Z,21.57
2023-09-03T00:06:18.494Z,21.65
2023-09-03T00:08:58.141Z,21.76
2023-09-03T00:11:27.051Z,22.00
2023-09-03T00:14:01.156Z,21.83
2023-09-03T00:16:31.704Z,21.95
2023-09-03T00:19:02.053Z,22.11
2023-09-03T00:21:31.052Z,21.89
2023-09-03T00:24:02.725Z,21.80
2023-09-03T00:26:45.416Z,21.78
2023-09-03T00:29:21.533Z,21.84
2023-09-03T00:31:56.357Z,21.62
2023-09-03T00:34:30.543Z,21.63
2023-09-03T00:37:17.039Z,21.68
2023-09-03T00:39:53.787Z,21.80
2023-09-03T00:42:23.069Z,21.82
2023-09-03T00:44:55.066Z,21.76
2023-09-03T00:47:25.490Z,21.75
2023-09-03T00:50:02.078Z,21.75
2023-09-03T00:52:30.648Z,21.77
2023-09-03T00:54:59.816Z,21.79
2023-09-03T00:57:30.438Z,21.73
2023-09-03T01:00:06.747Z,21.78
2023-09-03T01:02:41.067Z,21.78
2023-09-03T01:05:11.141Z,21.82
2023-09-03T01:07:45.298Z,21.82
2023-09-03T01:10:19.620Z,21.70
2023-09-03T01:12:55.360Z,21.83
2023-09-03T01:15:31.497Z,21.76
2023-09-03T01:18:23.272Z,21.74
2023-09-03T01:21:06.168Z,21.63
2023-09-03T01:23:42.613Z,21.82
2023-09-03T01:26:22.001Z,21.64
2023-09-03T01:28:53.701Z,21.73
2023-09-03T01:31:24.546Z,21.60
2023-09-03T01:33:53.878Z,21.66
2023-09-03T01:36:24.877Z,21.78
2023-09-03T01:39:05.306Z,21.63
2023-09-03T01:41:39.140Z,21.71
2023-09-03T01:44:24.024Z,21.53
2023-09-03T01:46:55.439Z,21.56
2023-09-03T01:49:36.632Z,21.64
2023-09-03T01:52:15.209Z,21.55
2023-09-03T01:54:51.232Z,21.68
2023-09-03T01:57:26.979Z,21.38
2023-09-03T02:00:00.696Z,21.41
2023-09-03T02:02:32.207Z,21.42
2023-09-03T02:05:08.596Z,21.60
2023-09-03T02:07:40.299Z,21.43
2023-09-03T02:10:09.840Z,21.29
2023-09-03T02:12:47.012Z,21.39
2023-09-03T02:15:31.856Z,21.44
2023-09-03T02:18:04.512Z,21.60
2023-09-03T02:20:33.415Z,21.54
2023-09-03T02:23:07.188Z,21.39
2023-09-03T02:25:36.311Z,21.49
2023-09-03T02:28:17.617Z,21.54
2023-09-03T02:31:03.083Z,21.46
2023-09-03T02:33:33.987Z,21.47
2023-09-03T02:36:16.714Z,21.59
2023-09-03T02:38:48.317Z,21.40
2023-09-03T02:41:19.590Z,21.54
2023-09-03T02:43:53.982Z,21.38
2023-09-03T02:46:26.529Z,21.78
2023-09-03T02:48:58.916Z,21.60
2023-09-03T02:54:16.788Z,21.41
2023-09-03T02:56:49.624Z,21.35
2023-09-03T02:59:23.790Z,21.23
2023-09-03T03:01:54.806Z,21.27
2023-09-03T03:04:23.284Z,21.25
2023-09-03T03:06:54.405Z,21.04
2023-09-03T03:09:25.004Z,21.18
2023-09-03T03:11:54.324Z,21.30
2023-09-03T03:14:24.701Z,21.28
2023-09-03T03:17:06.822Z,21.21
2023-09-03T03:19:36.103Z,21.00
2023-09-03T03:22:10.501Z,21.05
2023-09-03T03:24:47.692Z,21.11
2023-09-03T03:27:21.220Z,20.98
2023-09-03T03:29:53.553Z,20.95
2023-09-03T03:32:26.382Z,21.08
2023-09-03T03:35:00.205Z,20.98
2023-09-03T03:37:28.545Z,20.98
2023-09-03T03:39:56.782Z,20.94
2023-09-03T03:42:25.349Z,20.97
2023-09-03T03:45:02.952Z,20.79
2023-09-03T03:47:45.903Z,20.80
2023-09-03T03:50:25.672Z,21.01
2023-09-03T03:53:04.677Z,20.58
2023-09-03T03:55:43.954Z,20.76
2023-09-03T03:58:14.740Z,20.73
2023-09-03T04:00:45.232Z,20.38
2023-09-03T04:03:16.458Z,20.62
2023-09-03T04:06:06.656Z,20.43
2023-09-03T04:08:38.426Z,20.68
2023-09-03T04:11:09.038Z,20.60
2023-09-03T04:13:40.387Z,20.45
2023-09-03T04:16:11.421Z,20.53
2023-09-03T04:18:47.659Z,20.52
2023-09-03T04:21:17.460Z,20.44
2023-09-03T04:23:57.174Z,20.45
2023-09-03T04:26:26.893Z,20.48
2023-09-03T04:29:09.044Z,20.53
2023-09-03T04:31:44.487Z,20.41
2023-09-03T04:34:26.488Z,20.56
2023-09-03T04:36:58.204Z,20.31
2023-09-03T04:39:27.594Z,20.45
2023-09-03T04:42:01.810Z,20.65
2023-09-03T04:44:30.350Z,20.44
2023-09-03T04:46:59.348Z,20.40
2023-09-03T04:49:32.261Z,20.42
2023-09-03T04:52:02.738Z,20.61
2023-09-03T04:54:43.991Z,20.73
2023-09-03T04:57:21.035Z,20.79
2023-09-03T04:59:54.039Z,20.92
2023-09-03T05:02:26.384Z,20.69
2023-09-03T05:05:02.266Z,20.71
2023-09-03T05:07:31.785Z,20.64
2023-09-03T05:10:04.168Z,20.70
2023-09-03T05:12:35.511Z,20.85
2023-09-03T05:15:05.106Z,20.73
2023-09-03T05:17:36.176Z,20.84
2023-09-03T05:20:10.048Z,20.98
2023-09-03T05:22:42.310Z,20.82
2023-09-03T05:25:11.414Z,21.02
2023-09-03T05:27:45.559Z,21.09
2023-09-03T05:30:18.659Z,21.18
2023-09-03T05:32:48.274Z,21.05
2023-09-03T05:35:21.326Z,20.76
2023-09-03T05:37:52.319Z,20.82
2023-09-03T05:40:20.956Z,20.91
2023-09-03T05:42:57.324Z,21.06
2023-09-03T05:45:27.814Z,21.05
2023-09-03T05:47:57.449Z,21.04
2023-09-03T05:50:35.595Z,21.22
2023-09-03T05:53:13.637Z,21.20
2023-09-03T05:55:51.037Z,21.28
2023-09-03T05:58:19.477Z,21.31
2023-09-03T06:00:50.989Z,21.21
2023-09-03T06:03:21.720Z,21.38
2023-09-03T06:05:56.467Z,21.37
2023-09-03T06:08:25.917Z,21.39
2023-09-03T06:10:57.656Z,21.55
2023-09-03T06:13:35.375Z,21.32
2023-09-03T06:16:06.593Z,21.20
2023-09-03T06:18:38.119Z,21.26
2023-09-03T06:21:13.032Z,21.35
2023-09-03T06:23:49.682Z,21.35
2023-09-03T06:26:19.757Z,21.23
2023-09-03T06:28:56.745Z,21.32
2023-09-03T06:31:25.625Z,21.55
2023-09-03T06:34:10.434Z,21.47
2023-09-03T06:36:53.874Z,21.55
2023-09-03T06:39:27.752Z,21.51
2023-09-03T06:42:05.088Z,21.45
2023-09-03T06:44:35.346Z,21.47
2023-09-03T06:47:13.187Z,21.68
2023-09-03T06:49:42.326Z,21.64
2023-09-03T06:52:16.818Z,21.80
2023-09-03T06:54:46.041Z,21.56
2023-09-03T06:57:31.546Z,21.64
2023-09-03T07:00:13.584Z,21.67
2023-09-03T07:02:43.315Z,21.48
2023-09-03T07:05:11.944Z,21.34
2023-09-03T07:07:46.054Z,21.55
2023-09-03T07:10:22.474Z,21.69
2023-09-03T07:12:56.512Z,21.77
2023-09-03T07:15:24.698Z,21.67
2023-09-03T07:17:56.749Z,21.65
2023-09-03T07:20:25.664Z,21.71
2023-09-03T07:23:09.566Z,21.84
2023-09-03T07:25:38.623Z,21.78
2023-09-03T07:28:13.822Z,21.65
2023-09-03T07:30:54.353Z,21.62
2023-09-03T07:33:25.102Z,21.53
2023-09-03T07:35:54.047Z,21.64
2023-09-03T07:38:26.717Z,21.68
2023-09-03T07:41:03.145Z,21.56
2023-09-03T07:43:34.387Z,21.50
2023-09-03T07:46:08.532Z,21.54
2023-09-03T07:48:38.775Z,21.55
2023-09-03T07:51:16.376Z,21.39
2023-09-03T07:53:51.593Z,21.67
2023-09-03T07:56:21.082Z,21.60
2023-09-03T07:58:50.176Z,21.52
2023-09-03T08:01:21.989Z,21.78
2023-09-03T08:03:52.134Z,21.75
2023-09-03T08:06:21.485Z,21.85
2023-09-03T08:08:55.524Z,21.89
2023-09-03T08:11:34.198Z,21.90
2023-09-03T08:14:02.952Z,21.90
2023-09-03T08:16:33.734Z,21.66
2023-09-03T08:19:04.826Z,21.90
2023-09-03T08:21:36.727Z,21.94
2023-09-03T08:24:10.852Z,21.62
2023-09-03T08:26:40.253Z,21.75
2023-09-03T08:29:10.129Z,21.63
2023-09-03T08:31:42.341Z,21.82
2023-09-03T08:34:16.022Z,22.00
2023-09-03T08:36:48.906Z,21.96
2023-09-03T08:39:33.094Z,22.13
2023-09-03T08:42:05.430Z,22.06
2023-09-03T08:44:40.876Z,22.05
2023-09-03T08:47:22.672Z,21.91
2023-09-03T08:49:52.589Z,21.96
2023-09-03T08:52:26.198Z,22.18
2023-09-03T08:54:59.048Z,21.94
2023-09-03T08:57:32.514Z,21.99
2023-09-03T09:00:09.470Z,21.96
2023-09-03T09:02:42.667Z,22.07
2023-09-03T09:05:21.168Z,22.19
2023-09-03T09:07:58.567Z,22.30
2023-09-03T09:10:38.430Z,22.28
2023-09-03T09:13:11.884Z,22.15
2023-09-03T09:15:44.385Z,21.93
2023-09-03T09:18:16.459Z,22.31
2023-09-03T09:20:47.341Z,22.31
2023-09-03T09:23:24.772Z,22.31
2023-09-03T09:25:57.766Z,22.22
2023-09-03T09:28:27.541Z,22.67
2023-09-03T09:30:57.011Z,22.50
2023-09-03T09:33:27.277Z,22.43
2023-09-03T09:36:14.935Z,22.61
2023-09-03T09:38:46.605Z,22.81
2023-09-03T09:41:38.728Z,22.67
2023-09-03T09:44:15.438Z,22.65
2023-09-03T09:46:47.614Z,22.89
2023-09-03T09:49:20.143Z,22.75
2023-09-03T09:51:57.980Z,22.99
2023-09-03T09:54:26.831Z,22.99
2023-09-03T09:57:12.184Z,22.73
2023-09-03T09:59:45.892Z,22.83
2023-09-03T10:02:24.127Z,23.06
2023-09-03T10:04:58.783Z,23.19
2023-09-03T10:07:37.141Z,23.05
2023-09-03T10:10:07.518Z,23.16
2023-09-03T10:12:39.705Z,22.95
2023-09-03T10:15:10.700Z,22.99
2023-09-03T10:17:48.230Z,23.20
2023-09-03T10:20:28.988Z,23.28
2023-09-03T10:23:03.563Z,23.26
2023-09-03T10:25:35.462Z,23.38
2023-09-03T10:28:13.694Z,23.47
2023-09-03T10:30:50.960Z,23.28
2023-09-03T10:33:28.330Z,22.97
2023-09-03T10:36:17.415Z,23.44
2023-09-03T10:38:48.415Z,23.49
2023-09-03T10:41:28.697Z,23.36
2023-09-03T10:44:25.104Z,23.54
2023-09-03T10:47:07.011Z,23.70
2023-09-03T10:49:48.441Z,23.74
2023-09-03T10:52:41.699Z,23.68
2023-09-03T10:55:14.661Z,23.82
2023-09-03T10:57:52.444Z,23.85
2023-09-03T11:00:26.051Z,24.33
2023-09-03T11:03:25.073Z,24.27
2023-09-03T11:06:26.072Z,24.25
2023-09-03T11:09:30.580Z,24.32
2023-09-03T11:12:11.391Z,24.17
2023-09-03T11:14:45.548Z,24.10
2023-09-03T11:20:50.982Z,23.99
2023-09-03T11:23:32.561Z,24.16
2023-09-03T11:26:07.580Z,24.16
2023-09-03T11:28:43.128Z,24.14
2023-09-03T11:31:22.604Z,24.28
2023-09-03T11:33:59.712Z,24.32
2023-09-03T11:36:34.413Z,24.45
2023-09-03T11:39:11.522Z,24.40
2023-09-03T11:41:49.723Z,24.35
2023-09-03T11:44:30.434Z,24.24
2023-09-03T11:47:21.853Z,24.53
2023-09-03T11:50:01.968Z,24.83
2023-09-03T11:52:46.805Z,25.13
2023-09-03T11:55:28.428Z,25.17
2023-09-03T11:58:08.061Z,24.85
2023-09-03T12:00:49.068Z,24.48
2023-09-03T12:03:25.357Z,24.30
2023-09-03T12:06:01.344Z,24.58
2023-09-03T12:08:38.729Z,24.89
2023-09-03T12:11:16.064Z,24.96
2023-09-03T12:14:00.791Z,25.05
2023-09-03T12:16:42.941Z,25.03
2023-09-03T12:19:25.929Z,24.94
2023-09-03T12:22:14.325Z,24.78
2023-09-03T12:24:51.576Z,24.62
2023-09-03T12:27:29.367Z,24.70
2023-09-03T12:30:10.459Z,24.88
2023-09-03T12:32:53.761Z,25.26
2023-09-03T12:35:27.485Z,25.71
2023-09-03T12:38:08.722Z,25.19
2023-09-03T12:40:42.440Z,25.51
2023-09-03T12:43:16.631Z,25.77
2023-09-03T12:45:49.201Z,26.09
2023-09-03T12:48:27.480Z,26.37
2023-09-03T12:51:09.096Z,26.34
2023-09-03T12:53:48.857Z,26.17
2023-09-03T12:56:29.944Z,26.20
2023-09-03T12:59:11.825Z,26.23
2023-09-03T13:01:46.794Z,25.72
2023-09-03T13:04:22.503Z,25.71
2023-09-03T13:07:06.404Z,25.98
2023-09-03T13:09:50.988Z,25.93
2023-09-03T13:12:35.596Z,25.51
2023-09-03T13:15:07.624Z,25.65
2023-09-03T13:18:01.100Z,26.05
2023-09-03T13:20:40.985Z,25.59
2023-09-03T13:23:16.997Z,26.01
2023-09-03T13:26:01.085Z,26.09
2023-09-03T13:28:36.716Z,25.83
2023-09-03T13:31:17.794Z,26.02
2023-09-03T13:33:56.350Z,25.92
2023-09-03T13:36:32.954Z,25.73
2023-09-03T13:39:22.404Z,25.68
2023-09-03T13:42:23.070Z,25.63
2023-09-03T13:44:56.860Z,25.89
2023-09-03T13:47:29.189Z,26.29
2023-09-03T13:50:12.657Z,27.13
2023-09-03T13:52:47.882Z,27.44
2023-09-03T13:55:42.339Z,27.16
2023-09-03T13:58:30.066Z,27.21
2023-09-03T14:01:05.127Z,27.61
2023-09-03T14:03:42.975Z,27.77
2023-09-03T14:06:24.420Z,27.44
2023-09-03T14:09:06.724Z,27.07
2023-09-03T14:11:43.998Z,26.55
2023-09-03T14:14:33.145Z,26.46
2023-09-03T14:17:11.456Z,26.28
2023-09-03T14:19:50.010Z,26.48
2023-09-03T14:22:36.814Z,26.39
2023-09-03T14:25:21.962Z,26.48
2023-09-03T14:28:00.089Z,26.39
2023-09-03T14:30:40.573Z,26.18
2023-09-03T14:33:18.597Z,26.10
2023-09-03T14:35:53.876Z,25.92
2023-09-03T14:38:31.015Z,25.89
2023-09-03T14:41:10.938Z,25.97
2023-09-03T14:43:49.237Z,25.70
2023-09-03T14:46:24.437Z,25.72
2023-09-03T14:48:55.849Z,25.84
2023-09-03T14:51:37.153Z,26.04
2023-09-03T14:54:18.788Z,26.14
2023-09-03T14:56:51.678Z,26.05
2023-09-03T14:59:25.543Z,26.10
2023-09-03T15:02:03.953Z,26.02
2023-09-03T15:04:47.419Z,25.96
2023-09-03T15:07:27.951Z,25.82
2023-09-03T15:10:04.027Z,25.90
2023-09-03T15:12:50.072Z,25.90
2023-09-03T15:15:23.243Z,25.77
2023-09-03T15:18:02.063Z,25.78
2023-09-03T15:20:45.562Z,25.79
2023-09-03T15:23:22.230Z,25.89
2023-09-03T15:26:00.605Z,25.82
2023-09-03T15:28:42.140Z,25.73
2023-09-03T15:31:14.931Z,25.45
2023-09-03T15:33:49.492Z,25.59
2023-09-03T15:36:30.854Z,25.43
2023-09-03T15:39:04.059Z,25.48
2023-09-03T15:41:45.911Z,25.31
2023-09-03T15:44:22.437Z,25.05
2023-09-03T15:47:00.093Z,25.19
2023-09-03T15:49:33.421Z,25.15
2023-09-03T15:52:10.200Z,24.91
2023-09-03T15:54:43.652Z,24.87
2023-09-03T15:57:19.404Z,24.98
2023-09-03T15:59:51.058Z,25.00
2023-09-03T16:02:27.448Z,24.97
2023-09-03T16:05:10.446Z,24.86
2023-09-03T16:07:50.867Z,25.00
2023-09-03T16:10:27.113Z,24.81
2023-09-03T16:13:03.742Z,24.83
2023-09-03T16:15:36.104Z,24.87
2023-09-03T16:18:14.339Z,24.79
2023-09-03T16:21:02.918Z,24.63
2023-09-03T16:23:35.798Z,24.71
2023-09-03T16:26:24.383Z,24.62
2023-09-03T16:28:59.204Z,24.54
2023-09-03T16:31:37.318Z,24.54
2023-09-03T16:34:25.406Z,24.59
2023-09-03T16:37:00.974Z,24.54
2023-09-03T16:39:36.442Z,24.48
2023-09-03T16:42:24.457Z,24.66
2023-09-03T16:45:08.451Z,24.44
2023-09-03T16:47:40.865Z,24.51
2023-09-03T16:50:17.971Z,24.43
2023-09-03T16:53:01.132Z,24.52
2023-09-03T16:55:36.312Z,24.35
2023-09-03T16:58:15.253Z,24.48
2023-09-03T17:00:50.475Z,24.27
2023-09-03T17:03:28.397Z,24.41
2023-09-03T17:06:11.046Z,24.52
2023-09-03T17:08:47.600Z,24.32
2023-09-03T17:11:29.073Z,24.31
2023-09-03T17:14:05.358Z,24.13
2023-09-03T17:16:41.722Z,24.30
2023-09-03T17:19:28.232Z,24.18
2023-09-03T17:22:03.183Z,24.24
2023-09-03T17:24:39.537Z,24.20
2023-09-03T17:27:34.595Z,24.19
2023-09-03T17:30:18.915Z,24.23
2023-09-03T17:33:01.778Z,24.08
2023-09-03T17:35:33.130Z,24.08
2023-09-03T17:38:20.262Z,23.96
2023-09-03T17:40:54.036Z,23.75
2023-09-03T17:43:34.732Z,23.98
2023-09-03T17:46:09.087Z,23.99
2023-09-03T17:48:44.190Z,23.87
2023-09-03T17:51:21.264Z,23.32
2023-09-03T17:53:59.879Z,23.25
2023-09-03T17:56:42.630Z,23.08
2023-09-03T17:59:26.270Z,23.10
2023-09-03T18:02:00.023Z,23.03
2023-09-03T18:04:59.387Z,22.92
2023-09-03T18:08:00.029Z,22.71
2023-09-03T18:10:37.111Z,22.80
2023-09-03T18:13:27.268Z,22.76
2023-09-03T18:16:01.799Z,22.73
2023-09-03T18:18:57.710Z,22.75
2023-09-03T18:21:32.287Z,22.64
2023-09-03T18:24:08.270Z,22.67
2023-09-03T18:26:44.750Z,22.78
2023-09-03T18:29:39.630Z,22.87
2023-09-03T18:32:26.814Z,22.95
2023-09-03T18:35:06.546Z,22.72
2023-09-03T18:37:59.465Z,22.93
2023-09-03T18:40:38.926Z,23.11
2023-09-03T18:43:26.374Z,22.99
2023-09-03T18:46:22.697Z,22.78
2023-09-03T18:49:04.431Z,22.96
2023-09-03T18:51:53.222Z,22.83
2023-09-03T18:54:30.207Z,22.76
2023-09-03T18:57:06.005Z,22.86
2023-09-03T18:59:42.304Z,22.66
2023-09-03T19:02:49.441Z,22.58
2023-09-03T19:05:53.652Z,22.69
2023-09-03T19:08:36.200Z,22.68
2023-09-03T19:11:34.830Z,22.58
2023-09-03T19:14:08.302Z,22.67
2023-09-03T19:16:55.918Z,22.69
2023-09-03T19:19:43.651Z,22.75
2023-09-03T19:22:31.487Z,22.53
2023-09-03T19:28:34.907Z,22.63
2023-09-03T19:31:06.951Z,22.76
2023-09-03T19:33:43.285Z,22.62
2023-09-03T19:36:23.634Z,22.36
2023-09-03T19:39:12.311Z,22.37
2023-09-03T19:41:47.378Z,22.69
2023-09-03T19:44:22.552Z,22.54
2023-09-03T19:47:05.643Z,22.54
2023-09-03T19:52:36.934Z,22.51
2023-09-03T19:55:33.709Z,22.43
2023-09-03T19:58:27.501Z,22.46
2023-09-03T20:01:29.297Z,22.22
2023-09-03T20:04:14.700Z,22.18
2023-09-03T20:06:56.993Z,22.28
2023-09-03T20:09:40.378Z,22.36
2023-09-03T20:12:18.151Z,22.32
2023-09-03T20:15:10.697Z,22.24
2023-09-03T20:17:43.867Z,22.08
2023-09-03T20:20:25.221Z,22.12
2023-09-03T20:23:01.315Z,22.12
2023-09-03T20:25:34.439Z,22.23
2023-09-03T20:28:13.740Z,22.12
2023-09-03T20:30:49.992Z,21.99
2023-09-03T20:33:28.896Z,22.08
2023-09-03T20:36:15.317Z,22.11
2023-09-03T20:38:48.763Z,22.21
2023-09-03T20:41:38.522Z,22.04
2023-09-03T20:44:21.291Z,21.98
2023-09-03T20:46:57.491Z,21.92
2023-09-03T20:49:33.061Z,21.93
2023-09-03T20:52:11.883Z,21.84
2023-09-03T20:54:43.321Z,21.94
2023-09-03T20:57:21.649Z,21.92
2023-09-03T20:59:56.137Z,21.80
2023-09-03T21:02:27.594Z,21.81
2023-09-03T21:05:09.002Z,21.88
2023-09-03T21:07:38.880Z,21.90
2023-09-03T21:10:11.838Z,21.62
2023-09-03T21:12:52.743Z,21.86
2023-09-03T21:15:24.197Z,21.82
2023-09-03T21:17:53.724Z,21.73
2023-09-03T21:20:24.425Z,21.72
2023-09-03T21:22:55.810Z,21.78
2023-09-03T21:25:28.119Z,21.60
2023-09-03T21:28:01.463Z,21.70
2023-09-03T21:30:33.578Z,21.59
2023-09-03T21:33:02.766Z,21.48
2023-09-03T21:35:34.129Z,21.66
2023-09-03T21:38:05.843Z,21.62
2023-09-03T21:40:37.309Z,21.65
2023-09-03T21:43:09.746Z,21.55
2023-09-03T21:45:41.763Z,21.58
2023-09-03T21:48:13.006Z,21.59
2023-09-03T21:50:42.685Z,21.54
2023-09-03T21:53:10.958Z,21.66
2023-09-03T21:55:42.662Z,21.69
2023-09-03T21:58:14.957Z,21.47
2023-09-03T22:00:43.036Z,21.57
2023-09-03T22:03:16.700Z,21.50
2023-09-03T22:05:48.736Z,21.56
2023-09-03T22:08:20.012Z,21.44
2023-09-03T22:10:50.058Z,21.34
2023-09-03T22:13:30.931Z,21.61
2023-09-03T22:16:05.604Z,21.44
2023-09-03T22:18:46.306Z,21.39
2023-09-03T22:21:29.124Z,21.21
2023-09-03T22:24:00.071Z,21.34
2023-09-03T22:26:30.394Z,21.18
2023-09-03T22:29:02.606Z,21.33
2023-09-03T22:31:32.149Z,21.24
2023-09-03T22:34:00.976Z,21.23
2023-09-03T22:36:32.591Z,21.07
2023-09-03T22:39:04.014Z,21.20
2023-09-03T22:41:44.606Z,21.00
2023-09-03T22:44:15.144Z,21.10
2023-09-03T22:46:48.671Z,21.13
2023-09-03T22:49:19.135Z,21.02
2023-09-03T22:51:51.664Z,21.12
2023-09-03T22:54:28.670Z,21.12
2023-09-03T22:56:58.093Z,21.05
2023-09-03T22:59:30.562Z,20.85
2023-09-03T23:02:01.414Z,21.15
2023-09-03T23:04:36.279Z,20.93
2023-09-03T23:07:15.065Z,20.78
2023-09-03T23:09:46.666Z,20.79
2023-09-03T23:12:16.762Z,20.83
2023-09-03T23:14:48.629Z,20.86
2023-09-03T23:17:25.266Z,20.71
2023-09-03T23:19:59.479Z,20.73
2023-09-03T23:22:32.342Z,20.72
2023-09-03T23:25:00.445Z,20.41
2023-09-03T23:27:28.984Z,20.86
2023-09-03T23:30:02.937Z,20.75
2023-09-03T23:32:32.923Z,20.57
2023-09-03T23:35:02.213Z,20.61
2023-09-03T23:37:35.890Z,20.65
2023-09-03T23:40:07.421Z,20.48
2023-09-03T23:42:36.606Z,20.61
2023-09-03T23:45:24.094Z,20.56
2023-09-03T23:47:54.135Z,20.34
2023-09-03T23:50:24.991Z,20.57
2023-09-03T23:52:54.008Z,20.38
2023-09-03T23:55:28.158Z,20.33
2023-09-03T23:57:57.465Z,20.44
